Time;durP1;ratioP1;P1;durP2;ratioP2;P2;SDS_P1;SDS_P2;PMS_P1;PMS_P2;Temp;Humidity;BMP_temperature;BMP_pressure;BME280_temperature;BME280_humidity;BME280_pressure;Samples;Min_cycle;Max_cycle;Signal;HPM_P1;HPM_P2
2022/11/23 00:01:38;;;;;;;1.70;1.10;;;9.00;39.70;;;;;;4972012;28;20179;-68
2022/11/23 00:04:06;;;;;;;1.80;1.10;;;8.80;38.90;;;;;;4972389;28;20206;-68
2022/11/23 00:06:32;;;;;;;5.03;2.00;;;8.70;39.20;;;;;;4973144;28;20227;-67
2022/11/23 00:08:57;;;;;;;1.70;1.10;;;8.40;39.60;;;;;;4972651;28;20183;-67
2022/11/23 00:11:25;;;;;;;1.80;1.10;;;8.30;40.50;;;;;;4971229;28;20179;-68
2022/11/23 00:13:51;;;;;;;1.80;1.10;;;8.40;39.70;;;;;;4979364;28;20198;-67
2022/11/23 00:16:22;;;;;;;1.80;1.15;;;8.60;39.30;;;;;;4973484;28;20556;-68
2022/11/23 00:18:50;;;;;;;1.83;1.10;;;8.40;39.10;;;;;;4981613;28;20210;-68
2022/11/23 00:21:17;;;;;;;1.77;1.10;;;8.30;40.40;;;;;;4991819;28;20648;-68
2022/11/23 00:23:44;;;;;;;1.70;1.00;;;8.30;39.90;;;;;;4992943;28;20791;-68
2022/11/23 00:26:10;;;;;;;1.88;1.17;;;8.30;40.30;;;;;;4987548;28;21097;-68
2022/11/23 00:28:38;;;;;;;1.90;1.20;;;8.50;39.50;;;;;;4974685;28;20199;-68
2022/11/23 00:31:05;;;;;;;1.70;1.08;;;8.40;40.30;;;;;;4973382;28;20257;-68
2022/11/23 00:33:31;;;;;;;1.70;1.05;;;8.40;39.50;;;;;;4976011;28;20178;-67
2022/11/23 00:36:05;;;;;;;1.70;1.10;;;8.40;39.50;;;;;;4974157;28;20190;-68
2022/11/23 00:38:31;;;;;;;1.70;1.10;;;8.10;40.60;;;;;;4973200;28;20187;-68
2022/11/23 00:41:02;;;;;;;2.20;1.37;;;8.20;40.20;;;;;;4973080;28;20869;-68
2022/11/23 00:43:28;;;;;;;1.80;1.10;;;8.10;40.70;;;;;;4973871;28;20779;-68
2022/11/23 00:46:14;;;;;;;1.80;1.10;;;8.20;39.80;;;;;;4973606;28;20182;-68
2022/11/23 00:48:44;;;;;;;1.80;1.10;;;8.20;40.00;;;;;;4971889;28;20186;-68
2022/11/23 00:51:12;;;;;;;1.80;1.00;;;8.30;40.30;;;;;;4973715;28;20202;-67
2022/11/23 00:53:39;;;;;;;1.85;1.15;;;8.60;40.60;;;;;;4983295;28;20209;-68
2022/11/23 00:56:05;;;;;;;2.00;1.20;;;7.90;40.60;;;;;;4984300;28;20604;-68
2022/11/23 00:58:31;;;;;;;1.80;1.20;;;8.00;40.40;;;;;;4991677;28;20198;-68
2022/11/23 01:01:11;;;;;;;1.80;1.10;;;7.80;40.50;;;;;;4977432;28;20225;-68
2022/11/23 01:03:43;;;;;;;1.80;1.10;;;7.60;41.00;;;;;;4974824;28;20216;-68
2022/11/23 01:06:14;;;;;;;2.92;1.48;;;7.80;40.70;;;;;;4982010;28;20701;-68
2022/11/23 01:08:40;;;;;;;1.80;1.10;;;7.70;40.90;;;;;;4972979;28;20778;-68
2022/11/23 01:11:09;;;;;;;1.90;1.20;;;7.70;40.70;;;;;;4972617;28;20206;-68
2022/11/23 01:13:39;;;;;;;1.90;1.20;;;7.80;40.60;;;;;;4976348;28;20222;-68
2022/11/23 01:16:27;;;;;;;1.80;1.10;;;7.60;40.90;;;;;;4971827;28;20684;-68
2022/11/23 01:18:58;;;;;;;1.90;1.10;;;7.80;40.80;;;;;;4970423;28;20234;-68
2022/11/23 01:21:25;;;;;;;1.85;1.10;;;8.20;40.10;;;;;;4976815;28;20213;-69
2022/11/23 01:23:51;;;;;;;1.83;1.15;;;8.00;40.70;;;;;;4977441;28;20236;-68
2022/11/23 01:26:17;;;;;;;1.80;1.10;;;8.20;39.80;;;;;;4981593;28;20230;-68
2022/11/23 01:28:43;;;;;;;1.80;1.10;;;8.10;40.40;;;;;;4982889;28;20614;-68
2022/11/23 01:31:12;;;;;;;1.80;1.10;;;8.10;40.50;;;;;;4983512;28;20173;-68
2022/11/23 01:33:39;;;;;;;1.80;1.10;;;7.90;41.30;;;;;;4990894;28;20237;-68
2022/11/23 01:36:16;;;;;;;1.70;1.10;;;7.80;41.20;;;;;;4986623;28;20195;-68
2022/11/23 01:38:42;;;;;;;1.70;1.10;;;7.90;40.90;;;;;;4989530;28;20293;-68
2022/11/23 01:41:13;;;;;;;1.75;1.00;;;7.80;41.40;;;;;;4990291;28;20197;-68
2022/11/23 01:43:39;;;;;;;1.80;1.17;;;7.70;41.60;;;;;;4990101;28;20186;-68
2022/11/23 01:46:05;;;;;;;1.73;1.00;;;7.70;41.70;;;;;;4987141;28;20229;-68
2022/11/23 01:48:40;;;;;;;1.90;1.30;;;7.90;42.00;;;;;;4998406;28;20205;-68
2022/11/23 01:51:11;;;;;;;1.80;1.10;;;7.60;41.80;;;;;;4998380;28;20416;-68
2022/11/23 01:53:38;;;;;;;1.80;1.10;;;7.60;42.30;;;;;;4997949;28;20209;-67
2022/11/23 01:56:07;;;;;;;1.80;1.10;;;7.60;42.20;;;;;;4984915;28;20186;-68
2022/11/23 01:58:38;;;;;;;1.80;1.10;;;7.80;41.40;;;;;;4992733;28;20273;-68
2022/11/23 02:01:05;;;;;;;1.90;1.30;;;7.80;41.80;;;;;;4978845;28;20155;-68
2022/11/23 02:03:33;;;;;;;1.80;1.10;;;7.80;41.20;;;;;;4978405;28;20186;-68
2022/11/23 02:06:02;;;;;;;1.77;1.00;;;7.90;41.40;;;;;;4978724;28;20184;-68
2022/11/23 02:08:29;;;;;;;1.70;1.10;;;8.00;41.90;;;;;;4986338;28;20196;-68
2022/11/23 02:10:56;;;;;;;2.55;1.50;;;7.80;41.80;;;;;;4993704;28;20181;-68
2022/11/23 02:13:22;;;;;;;1.80;1.20;;;7.80;41.60;;;;;;4998031;28;20186;-68
2022/11/23 02:15:48;;;;;;;1.70;1.10;;;7.90;41.80;;;;;;4982397;28;20185;-68
2022/11/23 02:18:20;;;;;;;1.70;1.00;;;7.50;42.00;;;;;;4979532;28;20696;-68
2022/11/23 02:20:45;;;;;;;1.77;1.08;;;7.60;42.40;;;;;;4984168;28;20258;-68
2022/11/23 02:23:23;;;;;;;1.93;1.37;;;7.80;41.30;;;;;;4993343;28;20277;-68
2022/11/23 02:26:06;;;;;;;1.73;1.02;;;7.90;41.30;;;;;;4978538;28;20175;-68
2022/11/23 02:28:42;;;;;;;1.80;1.23;;;7.90;41.10;;;;;;4978155;28;20173;-68
2022/11/23 02:31:07;;;;;;;1.80;1.10;;;7.80;40.60;;;;;;4976399;28;20284;-68
2022/11/23 02:33:36;;;;;;;1.70;1.07;;;8.20;41.10;;;;;;4974588;28;20650;-68
2022/11/23 02:36:01;;;;;;;1.75;1.10;;;8.00;40.60;;;;;;4974670;28;20186;-68
2022/11/23 02:38:32;;;;;;;3.17;1.53;;;7.90;41.00;;;;;;4974733;28;20202;-68
2022/11/23 02:40:57;;;;;;;1.70;1.00;;;7.90;40.50;;;;;;4976611;28;20183;-68
2022/11/23 02:43:23;;;;;;;1.90;1.20;;;8.00;40.00;;;;;;4973854;28;20175;-68
2022/11/23 02:45:53;;;;;;;1.70;1.00;;;8.00;40.20;;;;;;4979241;28;20526;-68
2022/11/23 02:48:19;;;;;;;2.00;1.38;;;7.80;40.40;;;;;;4980258;28;20449;-68
2022/11/23 02:50:45;;;;;;;1.80;1.10;;;7.60;40.90;;;;;;4981000;28;20624;-68
2022/11/23 02:53:12;;;;;;;1.80;1.10;;;7.70;40.40;;;;;;4975066;28;20202;-68
2022/11/23 02:55:37;;;;;;;1.73;1.02;;;7.70;40.60;;;;;;4975100;28;20209;-68
2022/11/23 02:58:05;;;;;;;1.80;1.10;;;7.60;40.50;;;;;;4974670;28;20198;-68
2022/11/23 03:00:31;;;;;;;1.80;1.10;;;7.70;41.30;;;;;;4986403;28;20177;-68
2022/11/23 03:02:59;;;;;;;1.80;1.10;;;7.40;41.40;;;;;;4993923;28;20667;-68
2022/11/23 03:05:24;;;;;;;2.20;1.40;;;7.20;41.50;;;;;;4990097;28;20576;-68
2022/11/23 03:07:50;;;;;;;2.03;1.40;;;7.10;41.40;;;;;;4974086;28;20171;-67
2022/11/23 03:10:16;;;;;;;1.70;1.10;;;7.10;41.20;;;;;;4984703;28;20179;-68
2022/11/23 03:12:42;;;;;;;1.80;1.20;;;7.00;41.10;;;;;;4994102;28;20197;-68
2022/11/23 03:15:08;;;;;;;2.47;1.70;;;6.80;41.50;;;;;;4993923;28;20253;-68
2022/11/23 03:17:34;;;;;;;1.70;1.05;;;6.70;42.10;;;;;;4994244;28;20217;-68
2022/11/23 03:20:00;;;;;;;1.70;1.10;;;6.80;42.00;;;;;;4986917;28;20217;-68
2022/11/23 03:22:25;;;;;;;3.93;1.67;;;7.00;40.70;;;;;;4981219;28;20175;-68
2022/11/23 03:24:51;;;;;;;1.90;1.27;;;6.90;41.50;;;;;;4974409;28;20190;-69
2022/11/23 03:27:17;;;;;;;1.80;1.10;;;7.00;42.30;;;;;;4974966;28;20410;-68
2022/11/23 03:29:43;;;;;;;1.80;1.13;;;7.00;41.00;;;;;;4974300;28;20179;-69
2022/11/23 03:32:08;;;;;;;1.87;1.17;;;7.20;40.60;;;;;;4982338;28;20956;-68
2022/11/23 03:34:34;;;;;;;1.80;1.10;;;7.40;40.40;;;;;;4974301;28;20198;-68
2022/11/23 03:37:00;;;;;;;1.90;1.20;;;7.10;41.20;;;;;;4974494;28;20182;-68
2022/11/23 03:39:26;;;;;;;2.13;1.50;;;7.70;41.00;;;;;;4974190;28;20562;-67
2022/11/23 03:41:51;;;;;;;1.90;1.20;;;7.20;40.90;;;;;;4980996;28;20248;-68
2022/11/23 03:44:17;;;;;;;1.90;1.30;;;7.00;40.90;;;;;;4985602;28;20212;-68
2022/11/23 03:46:42;;;;;;;1.70;1.00;;;7.10;40.60;;;;;;4973232;28;20221;-68
2022/11/23 03:49:08;;;;;;;1.70;1.10;;;7.00;40.60;;;;;;4977036;28;20175;-68
2022/11/23 03:51:33;;;;;;;1.70;1.00;;;7.00;41.70;;;;;;4974522;28;20179;-68
2022/11/23 03:53:59;;;;;;;1.70;1.10;;;7.00;40.90;;;;;;4991679;28;20551;-68
2022/11/23 03:56:25;;;;;;;2.30;1.40;;;7.10;40.90;;;;;;4983539;28;20240;-69
2022/11/23 03:58:50;;;;;;;2.50;1.60;;;7.10;41.00;;;;;;4978645;28;20199;-69
2022/11/23 04:01:16;;;;;;;1.70;1.07;;;6.90;41.50;;;;;;4974099;28;20183;-69
2022/11/23 04:03:41;;;;;;;1.70;1.10;;;7.10;41.50;;;;;;4973794;28;20252;-68
2022/11/23 04:06:07;;;;;;;1.70;1.10;;;7.10;41.60;;;;;;4973834;28;20178;-68
2022/11/23 04:08:33;;;;;;;1.60;1.00;;;7.20;41.50;;;;;;4973112;28;20209;-68
2022/11/23 04:10:58;;;;;;;1.80;1.30;;;7.30;41.00;;;;;;4981220;28;20178;-68
2022/11/23 04:13:24;;;;;;;1.70;1.10;;;7.50;40.60;;;;;;4988413;28;20186;-69
2022/11/23 04:15:50;;;;;;;1.80;1.20;;;7.40;40.90;;;;;;4973552;28;20425;-69
2022/11/23 04:18:16;;;;;;;1.70;1.10;;;7.40;41.30;;;;;;4973622;28;20202;-69
2022/11/23 04:20:41;;;;;;;1.70;1.10;;;7.50;41.30;;;;;;4973384;28;20177;-69
2022/11/23 04:23:07;;;;;;;1.60;1.00;;;7.70;40.90;;;;;;4972793;28;20190;-69
2022/11/23 04:25:33;;;;;;;1.70;1.10;;;7.80;40.30;;;;;;4984548;28;20669;-69
2022/11/23 04:27:58;;;;;;;1.80;1.20;;;7.90;40.30;;;;;;4993071;28;20232;-69
2022/11/23 04:30:24;;;;;;;1.80;1.10;;;7.60;41.50;;;;;;4988645;28;20274;-69
2022/11/23 04:32:50;;;;;;;1.70;1.10;;;7.50;41.70;;;;;;4972881;28;20170;-69
2022/11/23 04:35:16;;;;;;;1.70;1.10;;;7.50;42.10;;;;;;4961694;28;20214;-68
2022/11/23 04:37:41;;;;;;;1.73;1.10;;;7.60;41.70;;;;;;4972613;28;20646;-68
2022/11/23 04:40:08;;;;;;;1.70;1.10;;;7.60;41.40;;;;;;4972198;28;20179;-68
2022/11/23 04:42:33;;;;;;;1.70;1.00;;;7.60;41.50;;;;;;4972368;28;20269;-68
2022/11/23 04:44:59;;;;;;;1.70;1.00;;;7.80;40.60;;;;;;4970911;28;20313;-68
2022/11/23 04:47:24;;;;;;;1.80;1.20;;;7.70;40.90;;;;;;4972266;28;20274;-68
2022/11/23 04:49:50;;;;;;;1.80;1.10;;;7.70;41.10;;;;;;4972798;28;20193;-68
2022/11/23 04:52:16;;;;;;;1.70;1.10;;;7.90;40.30;;;;;;4967276;28;20183;-69
2022/11/23 04:54:41;;;;;;;1.70;1.10;;;7.90;40.20;;;;;;4971807;28;20546;-68
2022/11/23 04:57:07;;;;;;;1.70;1.07;;;8.10;39.90;;;;;;4971124;28;20225;-69
2022/11/23 04:59:33;;;;;;;1.70;1.10;;;8.10;40.70;;;;;;4972201;28;20245;-69
2022/11/23 05:01:59;;;;;;;1.70;1.10;;;8.20;39.80;;;;;;4971770;28;20433;-69
2022/11/23 05:04:24;;;;;;;1.70;1.10;;;8.10;40.70;;;;;;4968685;28;20203;-69
2022/11/23 05:06:50;;;;;;;1.70;1.00;;;7.70;40.50;;;;;;4966545;28;20220;-68
2022/11/23 05:09:15;;;;;;;1.70;1.00;;;7.40;41.00;;;;;;4970662;28;20189;-69
2022/11/23 05:11:41;;;;;;;1.70;1.10;;;7.40;41.60;;;;;;4965496;28;20189;-68
2022/11/23 05:14:07;;;;;;;1.90;1.20;;;7.10;41.70;;;;;;4971121;28;20212;-69
2022/11/23 05:16:32;;;;;;;1.70;1.10;;;7.20;40.60;;;;;;4970368;28;20187;-69
2022/11/23 05:18:58;;;;;;;1.90;1.30;;;7.00;41.10;;;;;;4971926;28;20265;-69
2022/11/23 05:21:23;;;;;;;1.70;1.10;;;7.10;40.80;;;;;;4971777;28;20261;-68
2022/11/23 05:23:49;;;;;;;1.70;1.00;;;7.00;41.50;;;;;;4972206;28;20693;-69
2022/11/23 05:26:15;;;;;;;1.80;1.20;;;7.10;41.40;;;;;;4986854;28;20179;-68
2022/11/23 05:28:40;;;;;;;2.00;1.20;;;6.80;41.90;;;;;;4972687;28;20175;-67
2022/11/23 05:31:06;;;;;;;2.20;1.30;;;6.80;41.60;;;;;;4964321;28;20190;-68
2022/11/23 05:33:32;;;;;;;1.70;1.10;;;6.90;41.40;;;;;;4971057;28;20682;-68
2022/11/23 05:35:57;;;;;;;1.70;1.00;;;6.80;41.00;;;;;;4971839;28;20956;-67
2022/11/23 05:38:23;;;;;;;2.47;1.50;;;6.90;41.20;;;;;;4972439;28;20237;-67
2022/11/23 05:40:48;;;;;;;1.70;1.00;;;6.70;41.90;;;;;;4964048;28;20178;-69
2022/11/23 05:43:14;;;;;;;1.70;1.10;;;6.60;42.20;;;;;;4971956;28;20197;-68
2022/11/23 05:45:39;;;;;;;2.17;1.40;;;6.80;41.70;;;;;;4969080;28;20340;-68
2022/11/23 05:48:05;;;;;;;1.70;1.10;;;6.70;41.60;;;;;;4969478;28;20194;-68
2022/11/23 05:50:31;;;;;;;1.70;1.10;;;6.80;41.40;;;;;;5019879;23;20287;-73
2022/11/23 05:52:57;;;;;;;1.70;1.10;;;6.70;41.80;;;;;;5019233;28;20177;-73
2022/11/23 05:55:23;;;;;;;1.70;1.10;;;6.80;42.00;;;;;;5010946;28;20193;-74
2022/11/23 05:57:49;;;;;;;1.98;1.45;;;6.80;42.70;;;;;;5011087;28;20182;-74
2022/11/23 06:00:15;;;;;;;1.70;1.17;;;6.80;42.30;;;;;;5023909;28;20748;-73
2022/11/23 06:02:41;;;;;;;1.70;1.10;;;6.80;42.20;;;;;;5023441;28;20178;-73
2022/11/23 06:05:07;;;;;;;1.80;1.20;;;6.70;41.80;;;;;;5028013;28;20544;-73
2022/11/23 06:07:33;;;;;;;1.70;1.10;;;6.90;41.80;;;;;;5025874;28;20170;-72
2022/11/23 06:09:58;;;;;;;1.70;1.20;;;6.80;42.30;;;;;;5015019;28;20201;-72
2022/11/23 06:12:24;;;;;;;3.20;2.23;;;6.90;43.00;;;;;;5019106;28;20173;-75
2022/11/23 06:14:50;;;;;;;1.77;1.20;;;7.10;42.60;;;;;;5034359;28;20181;-73
2022/11/23 06:17:15;;;;;;;1.80;1.20;;;6.90;42.10;;;;;;5024705;28;20192;-73
2022/11/23 06:19:41;;;;;;;1.80;1.20;;;6.90;42.10;;;;;;5014703;28;20205;-73
2022/11/23 06:22:07;;;;;;;1.70;1.10;;;6.70;41.70;;;;;;5014762;28;20170;-73
2022/11/23 06:24:33;;;;;;;1.98;1.35;;;6.60;42.10;;;;;;5014587;28;20183;-73
2022/11/23 06:26:58;;;;;;;2.57;1.63;;;6.50;42.50;;;;;;5014872;28;20181;-73
2022/11/23 06:29:24;;;;;;;1.70;1.10;;;6.50;42.80;;;;;;5015419;28;20201;-73
2022/11/23 06:31:50;;;;;;;1.87;1.27;;;6.60;42.50;;;;;;5022476;28;20547;-74
2022/11/23 06:34:15;;;;;;;1.83;1.20;;;6.70;41.70;;;;;;5014518;28;20242;-73
2022/11/23 06:36:42;;;;;;;1.70;1.10;;;5.80;40.20;;;;;;5014150;28;20180;-73
2022/11/23 06:39:08;;;;;;;1.70;1.10;;;6.80;41.20;;;;;;5016410;28;20199;-73
2022/11/23 06:41:33;;;;;;;1.80;1.25;;;6.70;41.00;;;;;;5022231;28;20687;-73
2022/11/23 06:43:59;;;;;;;1.87;1.27;;;6.80;41.00;;;;;;5027798;28;20204;-73
2022/11/23 06:46:25;;;;;;;1.70;1.10;;;6.70;42.10;;;;;;5021514;28;20209;-73
2022/11/23 06:48:50;;;;;;;2.40;1.30;;;6.70;41.50;;;;;;5021735;28;20215;-73
2022/11/23 06:51:16;;;;;;;2.37;1.67;;;6.60;41.50;;;;;;5043531;28;20231;-73
2022/11/23 06:53:42;;;;;;;1.73;1.17;;;6.60;42.10;;;;;;5045024;28;20659;-73
2022/11/23 06:56:08;;;;;;;1.93;1.37;;;6.70;42.00;;;;;;5028672;28;20271;-73
2022/11/23 06:58:34;;;;;;;1.80;1.20;;;6.80;42.50;;;;;;5022411;28;20292;-73
2022/11/23 07:01:00;;;;;;;1.70;1.20;;;6.80;42.40;;;;;;5030095;28;20334;-73
2022/11/23 07:03:26;;;;;;;1.70;1.10;;;6.80;42.40;;;;;;5033553;28;20230;-73
2022/11/23 07:05:52;;;;;;;1.70;1.10;;;6.80;42.40;;;;;;5033627;28;20636;-73
2022/11/23 07:08:18;;;;;;;1.70;1.20;;;6.80;42.40;;;;;;5033578;28;20184;-73
2022/11/23 07:10:44;;;;;;;2.07;1.47;;;6.80;42.70;;;;;;5030727;28;20205;-74
2022/11/23 07:13:10;;;;;;;3.00;2.15;;;6.80;42.10;;;;;;5018864;28;20185;-73
2022/11/23 07:15:37;;;;;;;2.10;1.48;;;6.80;42.20;;;;;;5021276;28;20174;-73
2022/11/23 07:18:03;;;;;;;1.70;1.10;;;6.80;42.10;;;;;;5021345;28;20181;-73
2022/11/23 07:20:29;;;;;;;1.70;1.20;;;6.90;41.80;;;;;;5018412;28;20209;-73
2022/11/23 07:23:13;;;;;;;3.33;2.20;;;6.80;41.80;;;;;;5033376;28;20250;-73
2022/11/23 07:25:38;;;;;;;2.70;2.10;;;6.90;41.80;;;;;;5033453;28;20160;-73
2022/11/23 07:28:06;;;;;;;3.13;1.93;;;6.90;42.80;;;;;;5033498;28;20181;-73
2022/11/23 07:30:33;;;;;;;4.18;1.95;;;6.90;41.40;;;;;;5024079;28;20746;-74
2022/11/23 07:33:09;;;;;;;1.90;1.38;;;6.80;41.90;;;;;;5021375;28;20664;-73
2022/11/23 07:35:36;;;;;;;1.75;1.17;;;6.90;42.20;;;;;;5013537;28;20249;-73
2022/11/23 07:38:03;;;;;;;1.90;1.27;;;6.90;42.20;;;;;;5022430;28;20184;-73
2022/11/23 07:40:28;;;;;;;1.90;1.30;;;6.90;41.90;;;;;;5033252;28;20200;-73
2022/11/23 07:43:01;;;;;;;2.20;1.60;;;6.80;42.30;;;;;;5032961;28;20168;-73
2022/11/23 07:45:28;;;;;;;2.28;1.50;;;6.80;43.20;;;;;;5032163;28;20184;-73
2022/11/23 07:48:01;;;;;;;2.90;1.63;;;6.90;42.70;;;;;;5018772;28;20532;-73
2022/11/23 07:50:27;;;;;;;1.70;1.10;;;7.00;42.30;;;;;;5013221;28;20200;-75
2022/11/23 07:52:53;;;;;;;1.80;1.20;;;7.20;41.70;;;;;;5028346;28;20212;-76
2022/11/23 07:55:19;;;;;;;2.03;1.50;;;7.10;42.10;;;;;;5036677;28;20262;-76
2022/11/23 07:57:44;;;;;;;1.80;1.20;;;7.10;42.30;;;;;;5045957;28;20175;-76
2022/11/23 08:00:11;;;;;;;1.70;1.10;;;7.10;42.60;;;;;;5034614;28;20255;-76
2022/11/23 08:02:37;;;;;;;1.70;1.10;;;7.20;42.40;;;;;;5038477;28;20183;-76
2022/11/23 08:05:03;;;;;;;2.20;1.50;;;7.20;42.20;;;;;;5040947;28;20177;-76
2022/11/23 08:07:28;;;;;;;2.47;1.43;;;7.30;42.30;;;;;;5033674;28;20449;-76
2022/11/23 08:09:54;;;;;;;1.77;1.17;;;7.50;41.70;;;;;;5025700;28;20467;-76
2022/11/23 08:12:20;;;;;;;2.60;1.70;;;7.70;42.70;;;;;;5022543;28;20380;-76
2022/11/23 08:14:46;;;;;;;1.70;1.10;;;7.80;41.40;;;;;;5032407;28;20180;-75
2022/11/23 08:17:11;;;;;;;2.93;1.60;;;7.80;41.70;;;;;;5038942;28;20535;-75
2022/11/23 08:19:37;;;;;;;1.70;1.00;;;7.90;41.10;;;;;;5030384;28;20556;-75
2022/11/23 08:22:02;;;;;;;1.70;1.10;;;8.10;41.20;;;;;;5041328;28;20179;-75
2022/11/23 08:24:28;;;;;;;1.80;1.10;;;8.10;41.50;;;;;;5037881;28;20517;-74
2022/11/23 08:26:54;;;;;;;2.37;1.20;;;8.10;41.20;;;;;;5044137;28;20179;-73
2022/11/23 08:29:20;;;;;;;1.90;1.30;;;8.00;42.10;;;;;;5043440;28;20226;-73
2022/11/23 08:31:45;;;;;;;1.70;1.10;;;8.30;42.50;;;;;;5041577;28;20714;-73
2022/11/23 08:34:12;;;;;;;2.67;1.40;;;8.10;41.60;;;;;;5052483;28;20197;-73
2022/11/23 08:36:38;;;;;;;2.42;1.77;;;7.50;42.40;;;;;;5052471;28;20260;-73
2022/11/23 08:39:03;;;;;;;1.90;1.10;;;6.90;44.70;;;;;;5048950;28;20291;-73
2022/11/23 08:41:29;;;;;;;1.80;1.17;;;7.10;44.60;;;;;;5042171;28;20165;-73
2022/11/23 08:43:55;;;;;;;1.97;1.27;;;7.60;42.70;;;;;;5014376;28;20412;-73
2022/11/23 08:46:20;;;;;;;2.00;1.30;;;7.70;42.60;;;;;;5023481;28;20260;-73
2022/11/23 08:48:46;;;;;;;1.80;1.10;;;7.70;42.30;;;;;;5035436;28;20176;-73
2022/11/23 08:51:12;;;;;;;2.27;1.53;;;7.10;44.50;;;;;;5035154;28;20207;-74
2022/11/23 08:53:37;;;;;;;2.17;1.30;;;7.60;43.20;;;;;;5031312;28;20187;-74
2022/11/23 08:56:05;;;;;;;1.90;1.20;;;7.80;41.90;;;;;;5032042;28;20191;-74
2022/11/23 08:58:31;;;;;;;2.00;1.30;;;8.20;41.70;;;;;;5037094;28;20192;-73
2022/11/23 09:00:56;;;;;;;1.80;1.10;;;8.50;40.00;;;;;;5028419;28;20208;-74
2022/11/23 09:03:22;;;;;;;1.80;1.10;;;8.70;41.00;;;;;;5048324;28;20972;-74
2022/11/23 09:05:49;;;;;;;4.13;1.60;;;8.80;41.00;;;;;;5032424;28;20177;-74
2022/11/23 09:08:15;;;;;;;1.90;1.23;;;9.40;40.00;;;;;;5025377;28;20682;-74
2022/11/23 09:10:41;;;;;;;2.30;1.50;;;8.90;38.90;;;;;;5039303;28;20235;-74
2022/11/23 09:13:07;;;;;;;1.80;1.10;;;8.40;40.60;;;;;;5025256;28;20479;-74
2022/11/23 09:15:33;;;;;;;2.27;1.20;;;8.20;40.90;;;;;;5019634;28;20201;-73
2022/11/23 09:17:59;;;;;;;1.80;1.10;;;8.10;41.30;;;;;;5012297;28;20419;-74
2022/11/23 09:20:25;;;;;;;1.80;1.00;;;8.50;40.90;;;;;;5030206;28;20206;-74
2022/11/23 09:22:52;;;;;;;1.80;1.20;;;8.80;38.90;;;;;;5040472;28;20176;-74
2022/11/23 09:25:18;;;;;;;2.65;1.30;;;8.60;40.10;;;;;;5041450;28;20181;-75
2022/11/23 09:27:44;;;;;;;1.80;1.10;;;8.40;40.10;;;;;;5031206;28;20171;-74
2022/11/23 09:30:10;;;;;;;2.08;1.40;;;8.10;41.30;;;;;;5022422;28;20454;-74
2022/11/23 09:32:35;;;;;;;1.80;1.13;;;8.20;41.50;;;;;;5038146;28;20238;-74
2022/11/23 09:35:01;;;;;;;1.90;1.20;;;8.50;40.70;;;;;;5040988;28;20655;-74
2022/11/23 09:37:27;;;;;;;1.77;1.10;;;8.50;40.60;;;;;;5019587;28;20189;-74
2022/11/23 09:39:52;;;;;;;1.70;1.10;;;8.90;41.80;;;;;;5034666;28;20294;-74
2022/11/23 09:42:41;;;;;;;1.70;1.10;;;8.50;40.60;;;;;;5035658;28;20169;-74
2022/11/23 09:45:16;;;;;;;2.50;1.33;;;8.60;41.30;;;;;;5044991;28;20557;-74
2022/11/23 09:47:54;;;;;;;1.73;1.08;;;8.70;40.60;;;;;;5038770;28;20182;-74
2022/11/23 09:50:40;;;;;;;1.80;1.20;;;8.60;41.10;;;;;;5032467;28;20234;-74
2022/11/23 09:53:12;;;;;;;2.60;1.30;;;8.60;40.80;;;;;;5039973;28;20540;-74
2022/11/23 09:55:44;;;;;;;1.70;1.10;;;8.40;41.70;;;;;;5041384;28;20188;-74
2022/11/23 09:58:16;;;;;;;1.70;1.10;;;8.50;41.70;;;;;;5035234;28;20188;-74
2022/11/23 10:01:03;;;;;;;2.08;1.35;;;8.70;40.60;;;;;;5026712;28;20563;-73
2022/11/23 10:03:34;;;;;;;1.70;1.08;;;9.30;39.60;;;;;;5026290;28;20200;-73
2022/11/23 10:06:24;;;;;;;1.70;1.10;;;9.90;38.00;;;;;;5022304;28;20226;-73
2022/11/23 10:09:40;;;;;;;1.80;1.20;;;10.30;36.50;;;;;;5031288;28;20296;-74
2022/11/23 10:12:46;;;;;;;1.80;1.20;;;10.00;36.20;;;;;;4945394;29;20246;-73
2022/11/23 10:15:27;;;;;;;1.80;1.20;;;10.00;35.70;;;;;;5020343;28;20662;-73
2022/11/23 10:18:26;;;;;;;1.80;1.20;;;10.10;36.70;;;;;;5033783;28;20185;-74
2022/11/23 10:21:12;;;;;;;1.80;1.20;;;10.30;35.70;;;;;;5029673;28;20204;-73
2022/11/23 10:23:54;;;;;;;1.90;1.30;;;10.30;35.90;;;;;;5006299;28;20221;-73
2022/11/23 10:26:30;;;;;;;1.70;1.10;;;9.40;38.70;;;;;;5040009;28;20191;-72
2022/11/23 10:29:01;;;;;;;1.70;1.10;;;9.20;40.70;;;;;;5036641;28;20205;-74
2022/11/23 10:31:29;;;;;;;2.00;1.42;;;9.20;40.50;;;;;;5023033;28;20215;-73
2022/11/23 10:34:08;;;;;;;1.80;1.20;;;9.40;40.20;;;;;;5014482;28;20533;-73
2022/11/23 10:36:37;;;;;;;1.80;1.20;;;9.60;39.80;;;;;;5022149;28;20272;-73
2022/11/23 10:39:27;;;;;;;1.80;1.20;;;10.00;38.20;;;;;;5041238;28;20288;-73
2022/11/23 10:42:00;;;;;;;1.90;1.30;;;9.60;39.50;;;;;;5040862;28;20652;-73
2022/11/23 10:44:33;;;;;;;1.73;1.10;;;9.20;40.20;;;;;;5040542;28;20337;-73
2022/11/23 10:46:59;;;;;;;1.85;1.23;;;9.40;40.30;;;;;;5041755;28;20565;-74
2022/11/23 10:49:30;;;;;;;1.80;1.20;;;9.80;39.50;;;;;;5044466;28;20209;-73
2022/11/23 10:51:56;;;;;;;1.80;1.15;;;9.70;39.60;;;;;;5037366;28;20441;-73
2022/11/23 10:54:29;;;;;;;1.73;1.10;;;9.80;39.20;;;;;;5044671;28;20189;-74
2022/11/23 10:56:56;;;;;;;1.73;1.10;;;10.40;37.10;;;;;;5041937;28;20190;-74
2022/11/23 10:59:37;;;;;;;1.70;1.10;;;10.10;37.10;;;;;;5040817;28;20222;-74
2022/11/23 11:02:20;;;;;;;1.80;1.20;;;10.20;37.00;;;;;;5034254;28;20188;-74
2022/11/23 11:04:47;;;;;;;1.80;1.15;;;10.30;36.50;;;;;;5043701;28;20180;-74
2022/11/23 11:07:27;;;;;;;2.00;1.40;;;9.90;38.90;;;;;;5043146;28;20636;-74
2022/11/23 11:09:59;;;;;;;1.80;1.10;;;10.10;37.70;;;;;;5038205;28;20235;-74
2022/11/23 11:12:27;;;;;;;1.80;1.08;;;10.30;37.50;;;;;;5038407;28;20170;-74
2022/11/23 11:15:03;;;;;;;1.92;1.30;;;10.60;36.60;;;;;;5017887;28;20207;-73
2022/11/23 11:17:33;;;;;;;2.20;1.23;;;11.00;35.80;;;;;;5032376;28;20635;-74
2022/11/23 11:20:01;;;;;;;2.10;1.20;;;12.20;36.20;;;;;;5042158;28;20246;-74
2022/11/23 11:22:35;;;;;;;1.98;1.10;;;11.70;33.90;;;;;;5036179;28;20180;-74
2022/11/23 11:25:04;;;;;;;1.98;1.13;;;11.80;34.00;;;;;;5035306;28;20574;-74
2022/11/23 11:27:31;;;;;;;2.05;1.15;;;11.90;31.90;;;;;;5032343;28;20234;-75
2022/11/23 11:30:04;;;;;;;2.13;1.08;;;12.00;32.50;;;;;;5041110;28;20765;-74
2022/11/23 11:32:32;;;;;;;2.20;1.10;;;11.90;32.30;;;;;;5028262;28;20550;-74
2022/11/23 11:35:07;;;;;;;2.87;1.40;;;12.40;32.40;;;;;;5028104;28;20450;-74
2022/11/23 11:37:39;;;;;;;2.40;1.20;;;12.70;30.20;;;;;;5027287;28;20939;-73
2022/11/23 11:40:30;;;;;;;2.50;1.30;;;12.50;30.50;;;;;;5042078;28;20848;-74
2022/11/23 11:43:30;;;;;;;2.53;1.10;;;12.90;31.00;;;;;;5035572;28;20576;-74
2022/11/23 11:46:01;;;;;;;2.90;1.40;;;13.90;28.50;;;;;;5023622;28;20450;-74
2022/11/23 11:48:38;;;;;;;2.87;1.20;;;14.00;29.50;;;;;;5042976;28;20438;-74
2022/11/23 11:51:31;;;;;;;2.93;1.30;;;14.20;27.90;;;;;;5044397;23;20587;-71
2022/11/23 11:54:14;;;;;;;2.90;1.20;;;14.40;28.40;;;;;;4999182;28;20450;-70
2022/11/23 11:56:46;;;;;;;2.97;1.10;;;14.30;28.20;;;;;;4988138;28;20444;-70
2022/11/23 11:59:33;;;;;;;2.90;1.10;;;14.00;28.30;;;;;;4991002;28;20453;-70
2022/11/23 12:02:13;;;;;;;2.90;1.10;;;13.60;29.20;;;;;;4974539;28;20457;-72
2022/11/23 12:04:45;;;;;;;2.90;1.00;;;13.90;28.40;;;;;;4975029;28;20426;-72
2022/11/23 12:07:23;;;;;;;3.00;1.20;;;14.40;28.60;;;;;;4975173;28;20542;-71
2022/11/23 12:09:54;;;;;;;2.97;1.10;;;14.30;27.50;;;;;;4983197;28;20457;-72
2022/11/23 12:12:21;;;;;;;3.60;1.60;;;14.00;28.30;;;;;;4982816;28;20452;-73
2022/11/23 12:14:46;;;;;;;3.00;1.20;;;13.70;29.40;;;;;;4983661;28;20488;-71
2022/11/23 12:17:12;;;;;;;3.73;1.37;;;13.50;29.60;;;;;;4958539;28;20444;-71
2022/11/23 12:20:00;;;;;;;3.07;1.30;;;13.60;29.20;;;;;;4966695;28;20629;-71
2022/11/23 12:22:47;;;;;;;3.10;1.30;;;14.20;29.40;;;;;;4980039;28;20309;-71
2022/11/23 12:25:39;;;;;;;3.10;1.30;;;14.20;28.40;;;;;;4983987;28;20549;-74
2022/11/23 12:28:32;;;;;;;3.07;1.30;;;14.10;29.30;;;;;;4977125;28;20429;-71
2022/11/23 12:31:38;;;;;;;3.10;1.30;;;13.90;28.40;;;;;;4980749;28;20902;-70
2022/11/23 12:34:11;;;;;;;3.00;1.20;;;13.70;28.40;;;;;;4976362;28;20874;-71
2022/11/23 12:36:55;;;;;;;3.60;1.93;;;13.80;28.00;;;;;;4981896;28;20412;-71
2022/11/23 12:39:32;;;;;;;3.10;1.27;;;14.60;27.30;;;;;;4972580;28;20996;-72
2022/11/23 12:42:04;;;;;;;2.97;1.20;;;14.70;26.90;;;;;;4980987;28;20432;-74
2022/11/23 12:45:02;;;;;;;3.30;1.30;;;14.30;27.10;;;;;;4970473;28;20804;-71
2022/11/23 12:47:45;;;;;;;3.20;1.30;;;14.30;26.90;;;;;;4970151;28;20938;-71
2022/11/23 12:50:26;;;;;;;3.00;1.20;;;14.30;26.80;;;;;;4980340;28;20468;-71
2022/11/23 12:53:07;;;;;;;3.00;1.20;;;14.40;26.70;;;;;;4975897;28;20466;-71
2022/11/23 12:55:44;;;;;;;3.00;1.20;;;13.80;27.50;;;;;;4984561;28;20437;-71
2022/11/23 12:58:27;;;;;;;4.70;1.57;;;13.70;28.20;;;;;;4975306;28;20954;-71
2022/11/23 13:01:15;;;;;;;3.10;1.30;;;13.60;29.00;;;;;;4971115;28;20481;-70
2022/11/23 13:03:46;;;;;;;3.00;1.20;;;13.60;29.40;;;;;;4981100;28;20483;-71
2022/11/23 13:06:46;;;;;;;3.10;1.20;;;13.60;28.80;;;;;;4979422;28;20431;-71
2022/11/23 13:09:36;;;;;;;3.00;1.10;;;13.50;28.60;;;;;;4981233;28;20434;-71